sensor_id;sensor_type;location;lat;lon;timestamp;P1;durP1;ratioP1;P2;durP2;ratioP2
48375;SDS011;34178;50.904;11.560;2022-12-18T00:02:06;25.05;;;9.57;;
48375;SDS011;34178;50.904;11.560;2022-12-18T00:04:32;25.95;;;9.57;;
48375;SDS011;34178;50.904;11.560;2022-12-18T00:06:57;24.20;;;9.80;;
48375;SDS011;34178;50.904;11.560;2022-12-18T00:09:23;27.02;;;10.30;;
48375;SDS011;34178;50.904;11.560;2022-12-18T00:11:49;20.30;;;8.68;;
48375;SDS011;34178;50.904;11.560;2022-12-18T00:14:15;29.25;;;9.82;;
48375;SDS011;34178;50.904;11.560;2022-12-18T00:16:43;22.33;;;8.77;;
48375;SDS011;34178;50.904;11.560;2022-12-18T00:19:10;19.77;;;8.27;;
48375;SDS011;34178;50.904;11.560;2022-12-18T00:21:35;19.30;;;7.95;;
48375;SDS011;34178;50.904;11.560;2022-12-18T00:24:06;19.15;;;7.90;;
48375;SDS011;34178;50.904;11.560;2022-12-18T00:26:33;18.30;;;7.63;;
48375;SDS011;34178;50.904;11.560;2022-12-18T00:29:01;22.58;;;8.70;;
48375;SDS011;34178;50.904;11.560;2022-12-18T00:31:29;20.67;;;7.93;;
48375;SDS011;34178;50.904;11.560;2022-12-18T00:33:56;20.30;;;9.32;;
48375;SDS011;34178;50.904;11.560;2022-12-18T00:36:26;20.17;;;8.60;;
48375;SDS011;34178;50.904;11.560;2022-12-18T00:38:53;18.92;;;8.55;;
48375;SDS011;34178;50.904;11.560;2022-12-18T00:41:21;21.45;;;7.95;;
48375;SDS011;34178;50.904;11.560;2022-12-18T00:44:06;23.77;;;8.73;;
48375;SDS011;34178;50.904;11.560;2022-12-18T00:46:34;18.67;;;8.00;;
48375;SDS011;34178;50.904;11.560;2022-12-18T00:49:00;20.75;;;8.07;;
48375;SDS011;34178;50.904;11.560;2022-12-18T00:51:26;20.80;;;7.25;;
48375;SDS011;34178;50.904;11.560;2022-12-18T00:53:52;16.85;;;7.07;;
48375;SDS011;34178;50.904;11.560;2022-12-18T00:56:18;22.85;;;7.45;;
48375;SDS011;34178;50.904;11.560;2022-12-18T00:58:47;18.17;;;8.02;;
48375;SDS011;34178;50.904;11.560;2022-12-18T01:01:13;17.73;;;7.30;;
48375;SDS011;34178;50.904;11.560;2022-12-18T01:03:39;19.42;;;8.05;;
48375;SDS011;34178;50.904;11.560;2022-12-18T01:06:08;19.13;;;7.53;;
48375;SDS011;34178;50.904;11.560;2022-12-18T01:08:36;25.60;;;7.78;;
48375;SDS011;34178;50.904;11.560;2022-12-18T01:11:13;21.15;;;7.80;;
48375;SDS011;34178;50.904;11.560;2022-12-18T01:13:41;20.95;;;8.55;;
48375;SDS011;34178;50.904;11.560;2022-12-18T01:16:07;18.75;;;7.70;;
48375;SDS011;34178;50.904;11.560;2022-12-18T01:18:34;17.60;;;7.78;;
48375;SDS011;34178;50.904;11.560;2022-12-18T01:21:00;19.55;;;7.75;;
48375;SDS011;34178;50.904;11.560;2022-12-18T01:23:26;23.27;;;7.85;;
48375;SDS011;34178;50.904;11.560;2022-12-18T01:25:51;15.80;;;7.95;;
48375;SDS011;34178;50.904;11.560;2022-12-18T01:28:17;19.38;;;8.05;;
48375;SDS011;34178;50.904;11.560;2022-12-18T01:30:43;17.85;;;8.35;;
48375;SDS011;34178;50.904;11.560;2022-12-18T01:33:08;18.45;;;8.23;;
48375;SDS011;34178;50.904;11.560;2022-12-18T01:35:39;22.05;;;10.45;;
48375;SDS011;34178;50.904;11.560;2022-12-18T01:38:08;23.30;;;9.27;;
48375;SDS011;34178;50.904;11.560;2022-12-18T01:40:34;72.50;;;21.35;;
48375;SDS011;34178;50.904;11.560;2022-12-18T01:43:00;74.43;;;22.40;;
48375;SDS011;34178;50.904;11.560;2022-12-18T01:45:29;109.25;;;34.42;;
48375;SDS011;34178;50.904;11.560;2022-12-18T01:48:03;76.53;;;22.08;;
48375;SDS011;34178;50.904;11.560;2022-12-18T01:50:34;40.17;;;15.23;;
48375;SDS011;34178;50.904;11.560;2022-12-18T01:53:12;101.20;;;33.22;;
48375;SDS011;34178;50.904;11.560;2022-12-18T01:56:02;97.05;;;29.65;;
48375;SDS011;34178;50.904;11.560;2022-12-18T01:58:46;47.47;;;20.38;;
48375;SDS011;34178;50.904;11.560;2022-12-18T02:01:19;23.88;;;10.52;;
48375;SDS011;34178;50.904;11.560;2022-12-18T02:03:47;20.77;;;9.95;;
48375;SDS011;34178;50.904;11.560;2022-12-18T02:06:18;32.55;;;15.07;;
48375;SDS011;34178;50.904;11.560;2022-12-18T02:09:13;31.13;;;14.43;;
48375;SDS011;34178;50.904;11.560;2022-12-18T02:17:04;21.85;;;7.88;;
48375;SDS011;34178;50.904;11.560;2022-12-18T02:27:43;17.52;;;7.05;;
48375;SDS011;34178;50.904;11.560;2022-12-18T02:30:11;20.48;;;7.75;;
48375;SDS011;34178;50.904;11.560;2022-12-18T02:32:39;20.33;;;10.23;;
48375;SDS011;34178;50.904;11.560;2022-12-18T02:35:09;20.70;;;8.85;;
48375;SDS011;34178;50.904;11.560;2022-12-18T02:37:40;16.55;;;8.10;;
48375;SDS011;34178;50.904;11.560;2022-12-18T02:40:09;25.35;;;10.48;;
48375;SDS011;34178;50.904;11.560;2022-12-18T02:42:37;24.88;;;11.75;;
48375;SDS011;34178;50.904;11.560;2022-12-18T02:45:03;26.25;;;11.38;;
48375;SDS011;34178;50.904;11.560;2022-12-18T02:47:29;31.20;;;13.38;;
48375;SDS011;34178;50.904;11.560;2022-12-18T02:52:42;39.50;;;16.17;;
48375;SDS011;34178;50.904;11.560;2022-12-18T03:01:21;20.55;;;9.35;;
48375;SDS011;34178;50.904;11.560;2022-12-18T03:03:50;15.98;;;8.25;;
48375;SDS011;34178;50.904;11.560;2022-12-18T03:06:24;16.88;;;7.90;;
48375;SDS011;34178;50.904;11.560;2022-12-18T03:12:20;22.42;;;8.88;;
48375;SDS011;34178;50.904;11.560;2022-12-18T03:17:56;15.23;;;8.45;;
48375;SDS011;34178;50.904;11.560;2022-12-18T03:20:27;17.48;;;7.75;;
48375;SDS011;34178;50.904;11.560;2022-12-18T03:22:57;18.98;;;7.47;;
48375;SDS011;34178;50.904;11.560;2022-12-18T03:25:34;18.85;;;6.90;;
48375;SDS011;34178;50.904;11.560;2022-12-18T03:30:31;20.52;;;7.68;;
48375;SDS011;34178;50.904;11.560;2022-12-18T03:33:00;15.90;;;6.72;;
48375;SDS011;34178;50.904;11.560;2022-12-18T03:35:46;22.80;;;7.70;;
48375;SDS011;34178;50.904;11.560;2022-12-18T03:38:12;18.13;;;7.20;;
48375;SDS011;34178;50.904;11.560;2022-12-18T03:40:52;23.13;;;8.07;;
48375;SDS011;34178;50.904;11.560;2022-12-18T03:46:24;16.65;;;7.15;;
48375;SDS011;34178;50.904;11.560;2022-12-18T03:49:06;16.17;;;6.68;;
48375;SDS011;34178;50.904;11.560;2022-12-18T03:51:40;14.52;;;6.18;;
48375;SDS011;34178;50.904;11.560;2022-12-18T03:54:19;16.67;;;6.85;;
48375;SDS011;34178;50.904;11.560;2022-12-18T03:56:51;17.77;;;7.13;;
48375;SDS011;34178;50.904;11.560;2022-12-18T03:59:24;18.90;;;7.40;;
48375;SDS011;34178;50.904;11.560;2022-12-18T04:01:52;16.23;;;6.72;;
48375;SDS011;34178;50.904;11.560;2022-12-18T04:04:20;18.98;;;7.00;;
48375;SDS011;34178;50.904;11.560;2022-12-18T04:06:48;16.80;;;7.68;;
48375;SDS011;34178;50.904;11.560;2022-12-18T04:09:15;18.30;;;7.10;;
48375;SDS011;34178;50.904;11.560;2022-12-18T04:11:41;17.38;;;6.55;;
48375;SDS011;34178;50.904;11.560;2022-12-18T04:14:09;17.38;;;7.50;;
48375;SDS011;34178;50.904;11.560;2022-12-18T04:16:35;28.48;;;11.70;;
48375;SDS011;34178;50.904;11.560;2022-12-18T04:31:27;52.67;;;21.13;;
48375;SDS011;34178;50.904;11.560;2022-12-18T04:33:53;51.20;;;20.23;;
48375;SDS011;34178;50.904;11.560;2022-12-18T04:36:18;46.58;;;19.85;;
48375;SDS011;34178;50.904;11.560;2022-12-18T04:38:44;61.95;;;24.63;;
48375;SDS011;34178;50.904;11.560;2022-12-18T04:43:40;50.65;;;20.17;;
48375;SDS011;34178;50.904;11.560;2022-12-18T04:46:06;43.45;;;16.92;;
48375;SDS011;34178;50.904;11.560;2022-12-18T04:48:33;32.40;;;13.40;;
48375;SDS011;34178;50.904;11.560;2022-12-18T04:50:59;25.58;;;10.02;;
48375;SDS011;34178;50.904;11.560;2022-12-18T04:53:25;33.88;;;14.75;;
48375;SDS011;34178;50.904;11.560;2022-12-18T04:55:51;39.35;;;16.42;;
48375;SDS011;34178;50.904;11.560;2022-12-18T04:58:37;26.55;;;10.25;;
48375;SDS011;34178;50.904;11.560;2022-12-18T05:01:05;18.23;;;8.85;;
48375;SDS011;34178;50.904;11.560;2022-12-18T05:03:32;17.92;;;9.68;;
48375;SDS011;34178;50.904;11.560;2022-12-18T05:05:58;18.77;;;9.05;;
48375;SDS011;34178;50.904;11.560;2022-12-18T05:08:24;17.38;;;8.32;;
48375;SDS011;34178;50.904;11.560;2022-12-18T05:11:00;25.58;;;9.73;;
48375;SDS011;34178;50.904;11.560;2022-12-18T05:13:37;25.10;;;10.45;;
48375;SDS011;34178;50.904;11.560;2022-12-18T05:16:03;19.67;;;9.85;;
48375;SDS011;34178;50.904;11.560;2022-12-18T05:18:30;15.50;;;8.27;;
48375;SDS011;34178;50.904;11.560;2022-12-18T05:20:56;23.60;;;11.13;;
48375;SDS011;34178;50.904;11.560;2022-12-18T05:23:22;21.40;;;9.13;;
48375;SDS011;34178;50.904;11.560;2022-12-18T05:25:59;23.75;;;9.63;;
48375;SDS011;34178;50.904;11.560;2022-12-18T05:28:26;24.17;;;12.05;;
48375;SDS011;34178;50.904;11.560;2022-12-18T05:30:55;21.50;;;9.43;;
48375;SDS011;34178;50.904;11.560;2022-12-18T05:33:25;18.83;;;8.75;;
48375;SDS011;34178;50.904;11.560;2022-12-18T05:35:54;18.95;;;8.65;;
48375;SDS011;34178;50.904;11.560;2022-12-18T05:38:40;19.95;;;8.75;;
48375;SDS011;34178;50.904;11.560;2022-12-18T05:41:06;21.10;;;9.15;;
48375;SDS011;34178;50.904;11.560;2022-12-18T05:43:34;21.73;;;9.13;;
48375;SDS011;34178;50.904;11.560;2022-12-18T05:46:07;24.75;;;11.18;;
48375;SDS011;34178;50.904;11.560;2022-12-18T05:48:36;27.88;;;10.55;;
48375;SDS011;34178;50.904;11.560;2022-12-18T05:51:03;21.20;;;8.55;;
48375;SDS011;34178;50.904;11.560;2022-12-18T05:53:31;22.30;;;9.10;;
48375;SDS011;34178;50.904;11.560;2022-12-18T05:55:59;27.23;;;9.93;;
48375;SDS011;34178;50.904;11.560;2022-12-18T05:58:26;25.88;;;11.23;;
48375;SDS011;34178;50.904;11.560;2022-12-18T06:00:52;25.02;;;9.98;;
48375;SDS011;34178;50.904;11.560;2022-12-18T06:03:17;26.77;;;9.50;;
48375;SDS011;34178;50.904;11.560;2022-12-18T06:05:44;26.77;;;9.25;;
48375;SDS011;34178;50.904;11.560;2022-12-18T06:08:10;21.33;;;9.27;;
48375;SDS011;34178;50.904;11.560;2022-12-18T06:10:37;18.85;;;9.02;;
48375;SDS011;34178;50.904;11.560;2022-12-18T06:13:03;20.15;;;10.13;;
48375;SDS011;34178;50.904;11.560;2022-12-18T06:15:29;28.33;;;12.13;;
48375;SDS011;34178;50.904;11.560;2022-12-18T06:17:55;39.25;;;15.35;;
48375;SDS011;34178;50.904;11.560;2022-12-18T06:20:21;28.83;;;13.43;;
48375;SDS011;34178;50.904;11.560;2022-12-18T06:22:47;22.08;;;10.65;;
48375;SDS011;34178;50.904;11.560;2022-12-18T06:25:12;24.30;;;11.32;;
48375;SDS011;34178;50.904;11.560;2022-12-18T06:27:38;27.77;;;10.98;;
48375;SDS011;34178;50.904;11.560;2022-12-18T06:30:04;21.88;;;8.82;;
48375;SDS011;34178;50.904;11.560;2022-12-18T06:32:30;21.23;;;9.20;;
48375;SDS011;34178;50.904;11.560;2022-12-18T06:34:56;23.83;;;8.98;;
48375;SDS011;34178;50.904;11.560;2022-12-18T06:37:22;22.30;;;9.40;;
48375;SDS011;34178;50.904;11.560;2022-12-18T06:39:51;24.98;;;9.63;;
48375;SDS011;34178;50.904;11.560;2022-12-18T06:42:17;28.88;;;12.75;;
48375;SDS011;34178;50.904;11.560;2022-12-18T06:44:43;27.98;;;11.35;;
48375;SDS011;34178;50.904;11.560;2022-12-18T06:47:08;25.60;;;11.18;;
48375;SDS011;34178;50.904;11.560;2022-12-18T06:49:34;25.58;;;10.75;;
48375;SDS011;34178;50.904;11.560;2022-12-18T06:52:00;27.95;;;10.65;;
48375;SDS011;34178;50.904;11.560;2022-12-18T06:54:25;27.60;;;10.35;;
48375;SDS011;34178;50.904;11.560;2022-12-18T06:56:51;24.10;;;10.15;;
48375;SDS011;34178;50.904;11.560;2022-12-18T06:59:17;26.10;;;10.68;;
48375;SDS011;34178;50.904;11.560;2022-12-18T07:01:42;31.27;;;13.55;;
48375;SDS011;34178;50.904;11.560;2022-12-18T07:04:08;37.25;;;17.75;;
48375;SDS011;34178;50.904;11.560;2022-12-18T07:06:34;75.10;;;29.92;;
48375;SDS011;34178;50.904;11.560;2022-12-18T07:08:59;44.53;;;19.65;;
48375;SDS011;34178;50.904;11.560;2022-12-18T07:11:25;32.35;;;13.40;;
48375;SDS011;34178;50.904;11.560;2022-12-18T07:13:51;29.52;;;14.82;;
48375;SDS011;34178;50.904;11.560;2022-12-18T07:16:18;21.05;;;10.90;;
48375;SDS011;34178;50.904;11.560;2022-12-18T07:18:45;24.75;;;11.75;;
48375;SDS011;34178;50.904;11.560;2022-12-18T07:21:12;36.45;;;16.10;;
48375;SDS011;34178;50.904;11.560;2022-12-18T07:23:40;36.47;;;15.38;;
48375;SDS011;34178;50.904;11.560;2022-12-18T07:26:06;28.75;;;13.60;;
48375;SDS011;34178;50.904;11.560;2022-12-18T07:28:34;41.22;;;15.23;;
48375;SDS011;34178;50.904;11.560;2022-12-18T07:31:04;42.40;;;21.65;;
48375;SDS011;34178;50.904;11.560;2022-12-18T07:33:35;48.15;;;26.92;;
48375;SDS011;34178;50.904;11.560;2022-12-18T07:36:01;120.30;;;45.78;;
48375;SDS011;34178;50.904;11.560;2022-12-18T07:38:28;84.82;;;33.45;;
48375;SDS011;34178;50.904;11.560;2022-12-18T07:40:54;75.70;;;29.92;;
48375;SDS011;34178;50.904;11.560;2022-12-18T07:43:25;105.45;;;41.60;;
48375;SDS011;34178;50.904;11.560;2022-12-18T07:45:51;102.45;;;38.45;;
48375;SDS011;34178;50.904;11.560;2022-12-18T07:48:16;74.43;;;28.77;;
48375;SDS011;34178;50.904;11.560;2022-12-18T07:50:42;70.45;;;29.60;;
48375;SDS011;34178;50.904;11.560;2022-12-18T07:53:08;48.80;;;20.73;;
48375;SDS011;34178;50.904;11.560;2022-12-18T07:55:34;49.47;;;23.67;;
48375;SDS011;34178;50.904;11.560;2022-12-18T07:58:02;61.42;;;30.10;;
48375;SDS011;34178;50.904;11.560;2022-12-18T08:00:29;52.67;;;25.63;;
48375;SDS011;34178;50.904;11.560;2022-12-18T08:02:55;72.03;;;29.83;;
48375;SDS011;34178;50.904;11.560;2022-12-18T08:05:21;115.45;;;41.90;;
48375;SDS011;34178;50.904;11.560;2022-12-18T08:07:47;135.45;;;46.85;;
48375;SDS011;34178;50.904;11.560;2022-12-18T08:10:13;94.68;;;39.80;;
48375;SDS011;34178;50.904;11.560;2022-12-18T08:12:38;62.55;;;28.27;;
48375;SDS011;34178;50.904;11.560;2022-12-18T08:15:04;68.85;;;32.33;;
48375;SDS011;34178;50.904;11.560;2022-12-18T08:17:31;71.63;;;34.92;;
48375;SDS011;34178;50.904;11.560;2022-12-18T08:19:56;67.40;;;29.33;;
48375;SDS011;34178;50.904;11.560;2022-12-18T08:22:22;37.10;;;20.33;;
48375;SDS011;34178;50.904;11.560;2022-12-18T08:24:48;40.20;;;18.45;;
48375;SDS011;34178;50.904;11.560;2022-12-18T08:27:14;29.35;;;15.45;;
48375;SDS011;34178;50.904;11.560;2022-12-18T08:29:39;32.45;;;15.45;;
48375;SDS011;34178;50.904;11.560;2022-12-18T08:32:05;39.05;;;21.08;;
48375;SDS011;34178;50.904;11.560;2022-12-18T08:34:31;96.22;;;43.95;;
48375;SDS011;34178;50.904;11.560;2022-12-18T08:36:56;48.60;;;25.45;;
48375;SDS011;34178;50.904;11.560;2022-12-18T08:39:22;50.53;;;27.02;;
48375;SDS011;34178;50.904;11.560;2022-12-18T08:41:48;63.28;;;29.90;;
48375;SDS011;34178;50.904;11.560;2022-12-18T08:44:33;33.25;;;19.20;;
48375;SDS011;34178;50.904;11.560;2022-12-18T08:47:02;68.93;;;31.75;;
48375;SDS011;34178;50.904;11.560;2022-12-18T08:49:28;64.05;;;32.80;;
48375;SDS011;34178;50.904;11.560;2022-12-18T08:51:54;55.95;;;24.40;;
48375;SDS011;34178;50.904;11.560;2022-12-18T08:54:22;67.90;;;29.90;;
48375;SDS011;34178;50.904;11.560;2022-12-18T08:56:48;58.97;;;29.13;;
48375;SDS011;34178;50.904;11.560;2022-12-18T08:59:17;57.03;;;30.92;;
48375;SDS011;34178;50.904;11.560;2022-12-18T09:01:44;81.55;;;37.97;;
48375;SDS011;34178;50.904;11.560;2022-12-18T09:04:10;61.20;;;30.73;;
48375;SDS011;34178;50.904;11.560;2022-12-18T09:06:36;125.13;;;45.38;;
48375;SDS011;34178;50.904;11.560;2022-12-18T09:09:02;112.22;;;43.33;;
48375;SDS011;34178;50.904;11.560;2022-12-18T09:11:29;64.78;;;30.10;;
48375;SDS011;34178;50.904;11.560;2022-12-18T09:13:56;58.88;;;29.63;;
48375;SDS011;34178;50.904;11.560;2022-12-18T09:16:23;67.43;;;30.08;;
48375;SDS011;34178;50.904;11.560;2022-12-18T09:18:50;90.90;;;43.15;;
48375;SDS011;34178;50.904;11.560;2022-12-18T09:21:19;171.18;;;68.68;;
48375;SDS011;34178;50.904;11.560;2022-12-18T09:23:51;131.88;;;52.20;;
48375;SDS011;34178;50.904;11.560;2022-12-18T09:26:18;203.82;;;70.70;;
48375;SDS011;34178;50.904;11.560;2022-12-18T09:28:45;183.48;;;74.38;;
48375;SDS011;34178;50.904;11.560;2022-12-18T09:31:11;207.93;;;77.03;;
48375;SDS011;34178;50.904;11.560;2022-12-18T09:33:37;284.45;;;99.45;;
48375;SDS011;34178;50.904;11.560;2022-12-18T09:36:04;251.52;;;86.25;;
48375;SDS011;34178;50.904;11.560;2022-12-18T09:38:31;259.40;;;103.78;;
48375;SDS011;34178;50.904;11.560;2022-12-18T09:40:59;184.88;;;82.13;;
48375;SDS011;34178;50.904;11.560;2022-12-18T09:43:34;108.07;;;50.38;;
48375;SDS011;34178;50.904;11.560;2022-12-18T09:46:06;408.25;;;147.63;;
48375;SDS011;34178;50.904;11.560;2022-12-18T09:48:46;93.03;;;43.75;;
48375;SDS011;34178;50.904;11.560;2022-12-18T09:51:16;130.35;;;55.70;;
48375;SDS011;34178;50.904;11.560;2022-12-18T09:53:55;64.30;;;29.75;;
48375;SDS011;34178;50.904;11.560;2022-12-18T09:56:24;86.43;;;40.13;;
48375;SDS011;34178;50.904;11.560;2022-12-18T09:58:57;39.25;;;18.83;;
48375;SDS011;34178;50.904;11.560;2022-12-18T10:01:24;42.67;;;19.58;;
48375;SDS011;34178;50.904;11.560;2022-12-18T10:03:50;42.88;;;18.73;;
48375;SDS011;34178;50.904;11.560;2022-12-18T10:06:41;40.90;;;20.95;;
48375;SDS011;34178;50.904;11.560;2022-12-18T10:22:35;90.30;;;39.40;;
48375;SDS011;34178;50.904;11.560;2022-12-18T10:25:03;117.65;;;52.97;;
48375;SDS011;34178;50.904;11.560;2022-12-18T10:27:33;84.88;;;41.38;;
48375;SDS011;34178;50.904;11.560;2022-12-18T10:29:59;44.75;;;22.45;;
48375;SDS011;34178;50.904;11.560;2022-12-18T10:32:30;47.00;;;19.20;;
48375;SDS011;34178;50.904;11.560;2022-12-18T10:34:56;52.30;;;27.60;;
48375;SDS011;34178;50.904;11.560;2022-12-18T10:37:27;73.65;;;35.03;;
48375;SDS011;34178;50.904;11.560;2022-12-18T10:40:14;44.75;;;22.85;;
48375;SDS011;34178;50.904;11.560;2022-12-18T10:42:40;38.72;;;18.48;;
48375;SDS011;34178;50.904;11.560;2022-12-18T10:45:13;38.15;;;18.15;;
48375;SDS011;34178;50.904;11.560;2022-12-18T10:47:43;33.00;;;16.23;;
48375;SDS011;34178;50.904;11.560;2022-12-18T10:50:33;37.08;;;19.00;;
48375;SDS011;34178;50.904;11.560;2022-12-18T23:46:31;20.17;;;9.77;;
48375;SDS011;34178;50.904;11.560;2022-12-18T23:49:00;23.73;;;10.17;;
48375;SDS011;34178;50.904;11.560;2022-12-18T23:51:27;22.02;;;8.85;;
48375;SDS011;34178;50.904;11.560;2022-12-18T23:53:54;16.77;;;8.60;;
48375;SDS011;34178;50.904;11.560;2022-12-18T23:56:21;19.20;;;8.80;;
48375;SDS011;34178;50.904;11.560;2022-12-18T23:58:47;20.13;;;9.77;;
